createdAt,value
2018-09-19T00:01:56.531Z,100169.88
2018-09-19T00:04:59.429Z,100178.61
2018-09-19T00:08:02.403Z,100178.91
2018-09-19T00:11:05.596Z,100178.14
2018-09-19T00:14:09.357Z,100180.04
2018-09-19T00:17:12.244Z,100182.83
2018-09-19T00:20:15.273Z,100181.69
2018-09-19T00:23:18.160Z,100175.44
2018-09-19T00:26:21.108Z,100173.23
2018-09-19T00:29:24.126Z,100170.31
2018-09-19T00:32:27.114Z,100172.19
2018-09-19T00:35:30.136Z,100183.80
2018-09-19T00:38:33.061Z,100177.27
2018-09-19T00:41:36.045Z,100185.43
2018-09-19T00:44:39.003Z,100185.55
2018-09-19T00:47:41.990Z,100190.04
2018-09-19T00:50:44.890Z,100193.43
2018-09-19T00:53:47.814Z,100197.45
2018-09-19T00:56:50.765Z,100198.41
2018-09-19T00:59:53.732Z,100198.89
2018-09-19T01:02:56.725Z,100200.42
2018-09-19T01:05:59.700Z,100190.52
2018-09-19T01:09:02.960Z,100204.45
2018-09-19T01:12:05.859Z,100203.92
2018-09-19T01:15:09.013Z,100209.18
2018-09-19T01:18:11.977Z,100223.49
2018-09-19T01:21:14.856Z,100219.69
2018-09-19T01:24:17.785Z,100215.81
2018-09-19T01:27:20.670Z,100220.33
2018-09-19T01:30:23.636Z,100220.94
2018-09-19T01:33:26.564Z,100224.77
2018-09-19T01:36:29.483Z,100230.41
2018-09-19T01:39:32.460Z,100227.76
2018-09-19T01:42:35.408Z,100233.96
2018-09-19T01:45:38.454Z,100229.66
2018-09-19T01:48:41.374Z,100226.20
2018-09-19T01:51:44.491Z,100227.36
2018-09-19T01:54:47.455Z,100226.09
2018-09-19T01:57:50.368Z,100224.36
2018-09-19T02:00:53.256Z,100225.31
2018-09-19T02:03:56.192Z,100230.40
2018-09-19T02:06:59.168Z,100235.20
2018-09-19T02:10:02.160Z,100235.50
2018-09-19T02:13:05.127Z,100235.11
2018-09-19T02:16:08.096Z,100238.01
2018-09-19T02:19:11.076Z,100233.36
2018-09-19T02:22:14.024Z,100240.09
2018-09-19T02:25:16.969Z,100247.80
2018-09-19T02:28:20.042Z,100241.94
2018-09-19T02:31:22.981Z,100243.95
2018-09-19T02:34:25.887Z,100240.48
2018-09-19T02:37:28.858Z,100241.12
2018-09-19T02:40:31.777Z,100236.13
2018-09-19T02:43:34.713Z,100239.52
2018-09-19T02:46:37.701Z,100233.98
2018-09-19T02:49:40.674Z,100236.32
2018-09-19T02:52:43.627Z,100231.62
2018-09-19T02:55:46.517Z,100227.88
2018-09-19T02:58:49.524Z,100229.66
2018-09-19T03:01:52.607Z,100228.81
2018-09-19T03:04:55.549Z,100228.03
2018-09-19T03:07:58.427Z,100223.60
2018-09-19T03:11:01.322Z,100220.05
2018-09-19T03:14:04.269Z,100219.06
2018-09-19T03:17:07.237Z,100228.03
2018-09-19T03:20:10.163Z,100222.73
2018-09-19T03:23:13.200Z,100219.73
2018-09-19T03:26:16.115Z,100221.78
2018-09-19T03:29:19.021Z,100227.25
2018-09-19T03:32:21.945Z,100225.90
2018-09-19T03:35:24.969Z,100223.33
2018-09-19T03:38:27.854Z,100223.97
2018-09-19T03:41:30.859Z,100221.12
2018-09-19T03:44:33.821Z,100219.19
2018-09-19T03:47:36.805Z,100218.73
2018-09-19T03:50:39.721Z,100213.58
2018-09-19T03:53:42.641Z,100208.56
2018-09-19T03:56:45.581Z,100209.30
2018-09-19T03:59:48.485Z,100213.53
2018-09-19T04:02:51.429Z,100221.92
2018-09-19T04:05:54.356Z,100225.52
2018-09-19T04:08:57.312Z,100236.55
2018-09-19T04:12:00.257Z,100238.16
2018-09-19T04:15:03.215Z,100231.34
2018-09-19T04:18:06.764Z,100234.40
2018-09-19T04:21:09.754Z,100248.00
2018-09-19T04:24:12.647Z,100244.59
2018-09-19T04:27:15.581Z,100243.56
2018-09-19T04:30:18.584Z,100244.59
2018-09-19T04:33:21.578Z,100247.52
2018-09-19T04:36:24.505Z,100239.30
2018-09-19T04:39:27.466Z,100235.02
2018-09-19T04:42:30.476Z,100243.80
2018-09-19T04:45:33.490Z,100238.78
2018-09-19T04:48:36.465Z,100242.75
2018-09-19T04:51:39.934Z,100241.88
2018-09-19T04:54:42.827Z,100239.67
2018-09-19T04:57:45.749Z,100245.81
2018-09-19T05:00:48.670Z,100243.97
2018-09-19T05:03:51.597Z,100245.59
2018-09-19T05:06:54.621Z,100234.86
2018-09-19T05:09:57.540Z,100230.24
2018-09-19T05:13:00.492Z,100226.47
2018-09-19T05:16:03.397Z,100229.02
2018-09-19T05:19:06.336Z,100232.95
2018-09-19T05:22:09.279Z,100235.78
2018-09-19T05:25:12.172Z,100240.19
2018-09-19T05:28:15.343Z,100248.22
2018-09-19T05:31:18.314Z,100250.08
2018-09-19T05:34:21.247Z,100250.03
2018-09-19T05:37:24.142Z,100245.59
2018-09-19T05:40:27.092Z,100243.72
2018-09-19T05:43:30.037Z,100248.72
2018-09-19T05:46:32.952Z,100244.47
2018-09-19T05:49:36.481Z,100246.47
2018-09-19T05:52:40.210Z,100249.84
2018-09-19T05:55:43.281Z,100250.87
2018-09-19T05:58:46.796Z,100254.09
2018-09-19T06:01:50.463Z,100252.21
2018-09-19T06:04:53.441Z,100256.28
2018-09-19T06:07:56.372Z,100248.41
2018-09-19T06:11:02.328Z,100244.16
2018-09-19T06:14:05.325Z,100243.00
2018-09-19T06:17:08.284Z,100241.97
2018-09-19T06:20:11.205Z,100242.23
2018-09-19T06:23:14.128Z,100231.03
2018-09-19T06:26:17.061Z,100227.00
2018-09-19T06:29:20.338Z,100223.09
2018-09-19T06:32:23.488Z,100222.22
2018-09-19T06:35:26.870Z,100214.44
2018-09-19T06:38:30.338Z,100223.37
2018-09-19T06:41:33.845Z,100223.34
2018-09-19T06:44:37.382Z,100223.22
2018-09-19T06:47:41.119Z,100226.88
2018-09-19T06:50:44.169Z,100223.81
2018-09-19T06:53:47.704Z,100224.65
2018-09-19T06:56:50.694Z,100216.84
2018-09-19T06:59:53.681Z,100214.98
2018-09-19T07:02:56.606Z,100212.49
2018-09-19T07:05:59.584Z,100205.33
2018-09-19T07:09:02.803Z,100205.08
2018-09-19T07:12:05.974Z,100202.03
2018-09-19T07:15:08.959Z,100205.58
2018-09-19T07:18:12.487Z,100202.54
2018-09-19T07:21:15.971Z,100212.73
2018-09-19T07:24:18.928Z,100216.00
2018-09-19T07:27:21.892Z,100222.89
2018-09-19T07:30:25.407Z,100220.20
2018-09-19T07:33:28.310Z,100220.41
2018-09-19T07:36:31.258Z,100223.88
2018-09-19T07:39:34.217Z,100213.69
2018-09-19T07:42:37.181Z,100218.48
2018-09-19T07:45:40.702Z,100222.56
2018-09-19T07:48:43.705Z,100217.13
2018-09-19T07:51:46.627Z,100225.12
2018-09-19T07:54:50.218Z,100224.65
2018-09-19T07:57:53.206Z,100222.34
2018-09-19T08:01:08.821Z,100119.71
2018-09-19T08:04:13.168Z,100232.97
2018-09-19T08:07:21.358Z,100225.63
2018-09-19T08:10:24.740Z,100229.58
2018-09-19T08:13:28.129Z,100222.62
2018-09-19T08:16:31.156Z,100229.57
2018-09-19T08:19:34.698Z,100238.40
2018-09-19T08:22:38.173Z,100229.34
2018-09-19T08:25:41.111Z,100235.30
2018-09-19T08:28:44.722Z,100226.29
2018-09-19T08:31:47.756Z,100224.27
2018-09-19T08:34:50.758Z,100227.84
2018-09-19T08:37:54.376Z,100231.31
2018-09-19T08:40:57.871Z,100232.98
2018-09-19T08:44:01.632Z,100247.41
2018-09-19T08:47:04.661Z,100258.64
2018-09-19T08:50:07.663Z,100249.95
2018-09-19T08:53:12.037Z,100248.81
2018-09-19T08:56:15.081Z,100254.28
2018-09-19T08:59:18.012Z,100253.64
2018-09-19T09:02:20.938Z,100242.27
2018-09-19T09:05:24.019Z,100233.77
2018-09-19T09:08:27.359Z,100234.98
2018-09-19T09:11:30.322Z,100237.68
2018-09-19T09:14:33.313Z,100227.43
2018-09-19T09:17:36.700Z,100228.68
2018-09-19T09:20:40.530Z,100212.02
2018-09-19T09:23:43.445Z,100213.02
2018-09-19T09:26:46.401Z,100220.59
2018-09-19T09:29:49.270Z,100219.39
2018-09-19T09:32:52.604Z,100217.66
2018-09-19T09:35:56.006Z,100218.06
2018-09-19T09:38:59.029Z,100206.91
2018-09-19T09:42:01.982Z,100212.83
2018-09-19T09:45:04.979Z,100216.06
2018-09-19T09:48:07.920Z,100211.06
2018-09-19T09:51:11.325Z,100213.02
2018-09-19T09:54:14.935Z,100203.94
2018-09-19T09:57:18.520Z,100210.27
2018-09-19T10:00:27.357Z,100192.11
2018-09-19T10:03:30.908Z,100182.92
2018-09-19T10:06:33.941Z,100190.91
2018-09-19T10:09:36.842Z,100196.16
2018-09-19T10:12:39.811Z,100184.47
2018-09-19T10:15:42.749Z,100202.60
2018-09-19T10:18:46.228Z,100193.31
2018-09-19T10:21:51.097Z,100186.55
2018-09-19T10:24:54.106Z,100177.06
2018-09-19T10:27:57.065Z,100175.86
2018-09-19T10:31:00.034Z,100177.07
2018-09-19T10:34:02.961Z,100171.19
2018-09-19T10:37:05.806Z,100170.23
2018-09-19T10:40:08.730Z,100172.87
2018-09-19T10:43:11.680Z,100174.91
2018-09-19T10:46:15.088Z,100173.36
2018-09-19T10:49:18.554Z,100176.94
2018-09-19T10:52:21.911Z,100170.75
2018-09-19T10:55:24.904Z,100169.79
2018-09-19T10:58:27.872Z,100168.34
2018-09-19T11:01:30.907Z,100153.40
2018-09-19T11:04:33.849Z,100145.53
2018-09-19T11:07:37.288Z,100145.27
2018-09-19T11:10:40.199Z,100140.40
2018-09-19T11:13:43.695Z,100145.06
2018-09-19T11:16:46.653Z,100149.72
2018-09-19T11:19:49.693Z,100151.98
2018-09-19T11:22:52.566Z,100150.85
2018-09-19T11:25:55.523Z,100147.34
2018-09-19T11:28:58.451Z,100153.08
2018-09-19T11:32:01.485Z,100145.56
2018-09-19T11:35:04.459Z,100151.06
2018-09-19T11:38:07.485Z,100156.69
2018-09-19T11:41:10.429Z,100157.22
2018-09-19T11:44:13.453Z,100160.33
2018-09-19T11:47:16.714Z,100148.34
2018-09-19T11:50:20.239Z,100160.54
2018-09-19T11:53:26.433Z,100154.88
2018-09-19T11:56:29.385Z,100145.27
2018-09-19T11:59:32.775Z,100147.25
2018-09-19T12:02:36.238Z,100155.83
2018-09-19T12:05:39.229Z,100150.82
2018-09-19T12:08:42.138Z,100148.98
2018-09-19T12:11:45.018Z,100150.54
2018-09-19T12:14:47.945Z,100147.34
2018-09-19T12:17:51.470Z,100142.03
2018-09-19T12:20:54.446Z,100141.30
2018-09-19T12:23:57.345Z,100131.90
2018-09-19T12:27:00.290Z,100129.55
2018-09-19T12:30:03.991Z,100132.38
2018-09-19T12:33:08.520Z,100141.14
2018-09-19T12:36:11.465Z,100131.80
2018-09-19T12:39:14.385Z,100125.08
2018-09-19T12:42:17.819Z,100118.19
2018-09-19T12:45:21.229Z,100115.20
2018-09-19T12:48:24.180Z,100120.35
2018-09-19T12:51:27.113Z,100109.97
2018-09-19T12:54:30.101Z,100112.02
2018-09-19T12:57:33.562Z,100116.91
2018-09-19T13:00:37.121Z,100107.55
2018-09-19T13:03:40.633Z,100109.89
2018-09-19T13:06:43.578Z,100102.38
2018-09-19T13:09:46.562Z,100105.90
2018-09-19T13:12:49.914Z,100111.19
2018-09-19T13:15:53.403Z,100107.53
2018-09-19T13:18:56.822Z,100101.41
2018-09-19T13:22:00.301Z,100097.58
2018-09-19T13:25:03.832Z,100102.25
2018-09-19T13:28:07.268Z,100099.09
2018-09-19T13:31:10.244Z,100097.22
2018-09-19T13:34:13.174Z,100093.05
2018-09-19T13:37:16.158Z,100095.17
2018-09-19T13:40:19.142Z,100085.73
2018-09-19T13:43:22.087Z,100073.89
2018-09-19T13:46:26.235Z,100082.05
2018-09-19T13:49:37.806Z,100074.83
2018-09-19T13:52:40.718Z,100074.62
2018-09-19T13:55:44.728Z,100070.00
2018-09-19T13:58:47.853Z,100068.25
2018-09-19T14:01:51.364Z,100068.89
2018-09-19T14:04:54.371Z,100064.27
2018-09-19T14:07:57.305Z,100064.98
2018-09-19T14:11:00.288Z,100070.41
2018-09-19T14:14:04.150Z,100058.23
2018-09-19T14:17:07.475Z,100060.36
2018-09-19T14:20:10.390Z,100063.67
2018-09-19T14:23:13.321Z,100054.69
2018-09-19T14:26:16.256Z,100053.14
2018-09-19T14:29:19.645Z,100047.97
2018-09-19T14:32:23.221Z,100051.38
2018-09-19T14:35:26.761Z,100042.56
2018-09-19T14:38:29.702Z,100036.89
2018-09-19T14:41:32.649Z,100051.81
2018-09-19T14:44:35.909Z,100058.00
2018-09-19T14:47:38.931Z,100052.96
2018-09-19T14:50:42.538Z,100054.81
2018-09-19T14:53:46.085Z,100052.22
2018-09-19T14:56:49.071Z,100043.42
2018-09-19T14:59:51.998Z,100042.16
2018-09-19T15:02:55.552Z,100036.53
2018-09-19T15:05:59.003Z,100033.31
2018-09-19T15:09:02.709Z,100037.84
2018-09-19T15:12:06.235Z,100044.58
2018-09-19T15:15:09.173Z,100045.59
2018-09-19T15:18:12.210Z,100041.11
2018-09-19T15:21:15.153Z,100046.09
2018-09-19T15:24:18.674Z,100042.86
2018-09-19T15:27:21.615Z,100041.99
2018-09-19T15:30:24.583Z,100043.91
2018-09-19T15:33:28.180Z,100044.73
2018-09-19T15:36:31.606Z,100036.42
2018-09-19T15:39:34.524Z,100038.64
2018-09-19T15:42:37.500Z,100038.06
2018-09-19T15:45:41.141Z,100048.84
2018-09-19T15:48:44.118Z,100046.00
2018-09-19T15:51:47.047Z,100046.13
2018-09-19T15:54:51.677Z,100048.28
2018-09-19T15:57:55.142Z,100056.11
2018-09-19T16:00:58.814Z,100050.56
2018-09-19T16:04:01.812Z,100051.48
2018-09-19T16:07:04.813Z,100059.19
2018-09-19T16:10:07.890Z,100060.53
2018-09-19T16:13:10.893Z,100059.05
2018-09-19T16:16:14.316Z,100064.61
2018-09-19T16:19:17.816Z,100056.25
2018-09-19T16:22:20.812Z,100065.22
2018-09-19T16:25:23.723Z,100060.36
2018-09-19T16:28:27.153Z,100061.94
2018-09-19T16:31:30.599Z,100064.98
2018-09-19T16:34:33.521Z,100068.31
2018-09-19T16:37:37.162Z,100067.23
2018-09-19T16:40:40.681Z,100071.56
2018-09-19T16:43:44.155Z,100072.05
2018-09-19T16:46:47.726Z,100076.04
2018-09-19T16:49:51.238Z,100076.16
2018-09-19T16:52:54.634Z,100089.24
2018-09-19T16:55:57.624Z,100082.66
2018-09-19T16:59:01.630Z,100086.08
2018-09-19T17:02:04.799Z,100091.41
2018-09-19T17:05:07.724Z,100091.16
2018-09-19T17:08:10.835Z,100087.41
2018-09-19T17:11:14.373Z,100101.27
2018-09-19T17:14:18.135Z,100096.22
2018-09-19T17:17:21.056Z,100100.19
2018-09-19T17:20:23.981Z,100102.06
2018-09-19T17:23:26.889Z,100109.95
2018-09-19T17:26:30.489Z,100115.88
2018-09-19T17:29:33.407Z,100113.42
2018-09-19T17:32:37.257Z,100119.27
2018-09-19T17:35:40.252Z,100117.02
2018-09-19T17:38:43.158Z,100129.38
2018-09-19T17:41:46.661Z,100129.13
2018-09-19T17:44:49.632Z,100124.19
2018-09-19T17:47:53.245Z,100127.90
2018-09-19T17:50:56.347Z,100129.55
2018-09-19T17:53:59.450Z,100132.64
2018-09-19T17:57:02.397Z,100137.17
2018-09-19T18:00:07.638Z,100137.77
2018-09-19T18:03:10.603Z,100147.14
2018-09-19T18:06:13.920Z,100150.47
2018-09-19T18:09:16.838Z,100148.91
2018-09-19T18:12:20.458Z,100153.57
2018-09-19T18:15:23.459Z,100157.16
2018-09-19T18:18:26.401Z,100160.25
2018-09-19T18:21:29.354Z,100166.53
2018-09-19T18:24:32.276Z,100177.55
2018-09-19T18:27:35.800Z,100184.95
2018-09-19T18:30:38.837Z,100182.68
2018-09-19T18:33:41.745Z,100194.03
2018-09-19T18:36:44.660Z,100200.80
2018-09-19T18:39:47.625Z,100207.91
2018-09-19T18:42:50.541Z,100211.80
2018-09-19T18:45:53.457Z,100225.23
2018-09-19T18:48:56.341Z,100225.42
2018-09-19T18:51:59.290Z,100233.02
2018-09-19T18:55:02.256Z,100231.55
2018-09-19T18:58:05.252Z,100240.31
2018-09-19T19:01:09.286Z,100236.22
2018-09-19T19:04:12.537Z,100239.34
2018-09-19T19:07:15.927Z,100247.44
2018-09-19T19:10:18.873Z,100246.11
2018-09-19T19:13:21.829Z,100251.08
2018-09-19T19:16:24.774Z,100251.98
2018-09-19T19:19:27.743Z,100257.23
2018-09-19T19:22:30.697Z,100255.58
2018-09-19T19:25:34.260Z,100260.72
2018-09-19T19:28:37.213Z,100264.07
2018-09-19T19:31:40.132Z,100267.97
2018-09-19T19:34:43.708Z,100270.45
2018-09-19T19:37:47.114Z,100270.34
2018-09-19T19:40:50.371Z,100272.64
2018-09-19T19:43:53.356Z,100275.13
2018-09-19T19:46:57.934Z,100283.53
2018-09-19T19:50:00.926Z,100281.77
2018-09-19T19:53:03.858Z,100273.48
2018-09-19T19:56:06.835Z,100278.33
2018-09-19T19:59:10.536Z,100282.16
2018-09-19T20:02:14.023Z,100286.61
2018-09-19T20:05:17.032Z,100293.09
2018-09-19T20:08:20.008Z,100294.39
2018-09-19T20:11:23.011Z,100299.56
2018-09-19T20:14:26.048Z,100302.13
2018-09-19T20:17:29.029Z,100293.77
2018-09-19T20:20:32.655Z,100296.47
2018-09-19T20:23:35.698Z,100299.77
2018-09-19T20:26:38.710Z,100300.09
2018-09-19T20:29:41.704Z,100299.64
2018-09-19T20:32:44.688Z,100303.73
2018-09-19T20:35:48.831Z,100307.14
2018-09-19T20:38:51.876Z,100317.59
2018-09-19T20:41:55.517Z,100306.73
2018-09-19T20:44:58.676Z,100307.20
2018-09-19T20:48:02.238Z,100312.98
2018-09-19T20:51:05.716Z,100314.00
2018-09-19T20:54:08.776Z,100317.14
2018-09-19T20:57:12.269Z,100325.97
2018-09-19T21:00:15.437Z,100328.62
2018-09-19T21:03:18.890Z,100331.25
2018-09-19T21:06:21.994Z,100337.62
2018-09-19T21:09:25.528Z,100335.44
2018-09-19T21:12:29.242Z,100346.69
2018-09-19T21:15:32.304Z,100341.70
2018-09-19T21:18:35.332Z,100345.13
2018-09-19T21:21:38.351Z,100337.27
2018-09-19T21:24:41.312Z,100339.16
2018-09-19T21:27:44.332Z,100344.39
2018-09-19T21:30:47.333Z,100337.59
2018-09-19T21:33:50.273Z,100336.73
2018-09-19T21:36:53.509Z,100342.37
2018-09-19T21:39:56.870Z,100339.27
2018-09-19T21:43:00.384Z,100345.36
2018-09-19T21:46:03.824Z,100345.27
2018-09-19T21:49:06.713Z,100350.34
2018-09-19T21:52:09.988Z,100348.77
2018-09-19T21:55:13.480Z,100352.32
2018-09-19T21:58:16.489Z,100351.69
2018-09-19T22:01:25.150Z,100364.56
2018-09-19T22:04:28.824Z,100354.23
2018-09-19T22:07:32.293Z,100348.87
2018-09-19T22:10:35.197Z,100359.09
2018-09-19T22:13:39.601Z,100348.30
2018-09-19T22:16:42.616Z,100348.09
2018-09-19T22:19:45.541Z,100347.83
2018-09-19T22:22:48.526Z,100348.99
2018-09-19T22:25:51.457Z,100343.70
2018-09-19T22:28:55.035Z,100352.56
2018-09-19T22:31:58.413Z,100352.56
2018-09-19T22:35:01.386Z,100347.92
2018-09-19T22:38:04.331Z,100349.69
2018-09-19T22:41:07.816Z,100340.88
2018-09-19T22:44:11.212Z,100344.62
2018-09-19T22:47:14.569Z,100338.78
2018-09-19T22:50:17.583Z,100333.97
2018-09-19T22:53:20.726Z,100335.70
2018-09-19T22:56:23.639Z,100329.95
2018-09-19T22:59:26.957Z,100336.69
2018-09-19T23:02:29.879Z,100330.25
2018-09-19T23:05:39.684Z,100331.20
2018-09-19T23:08:42.628Z,100330.16
2018-09-19T23:11:45.601Z,100331.30
2018-09-19T23:14:49.049Z,100332.65
2018-09-19T23:17:52.517Z,100328.31
2018-09-19T23:20:55.477Z,100324.17
2018-09-19T23:23:58.397Z,100329.77
2018-09-19T23:27:01.767Z,100332.66
2018-09-19T23:30:05.217Z,100324.09
2018-09-19T23:33:08.173Z,100328.05
2018-09-19T23:36:11.112Z,100331.58
2018-09-19T23:39:14.081Z,100324.67
2018-09-19T23:42:17.742Z,100320.33
2018-09-19T23:45:21.209Z,100323.80
2018-09-19T23:48:24.102Z,100317.75
2018-09-19T23:51:27.639Z,100313.23
2018-09-19T23:54:30.556Z,100310.10
2018-09-19T23:57:33.456Z,100301.56
